Time;durP1;ratioP1;P1;durP2;ratioP2;P2;SDS_P1;SDS_P2;PMS_P1;PMS_P2;Temp;Humidity;BMP_temperature;BMP_pressure;BME280_temperature;BME280_humidity;BME280_pressure;Samples;Min_cycle;Max_cycle;Signal;HPM_P1;HPM_P2
2021/08/09 00:00:20;;;;;;;31.23;15.00;;;;;;;24.36;63.58;99887.03;3376414;29;20460;-75
2021/08/09 00:02:01;;;;;;;33.87;15.07;;;;;;;24.33;63.80;99887.59;3375980;29;20508;-77
2021/08/09 00:03:42;;;;;;;31.80;14.50;;;;;;;24.33;63.26;99884.06;3377081;29;20071;-76
2021/08/09 00:05:23;;;;;;;23.25;12.18;;;;;;;24.34;63.69;99888.41;3377103;29;20052;-76
2021/08/09 00:07:04;;;;;;;32.00;13.03;;;;;;;24.33;63.73;99884.88;3376929;29;20048;-75
2021/08/09 00:08:44;;;;;;;36.57;14.93;;;;;;;24.32;63.73;99891.44;3377684;29;20068;-76
2021/08/09 00:10:27;;;;;;;33.57;15.17;;;;;;;24.32;63.87;99885.19;3376513;29;20393;-76
2021/08/09 00:12:08;;;;;;;31.70;14.45;;;;;;;24.31;63.89;99881.63;3376570;29;20435;-76
2021/08/09 00:13:49;;;;;;;25.40;13.37;;;;;;;24.26;63.59;99881.66;3376878;29;20120;-75
2021/08/09 00:15:29;;;;;;;28.60;13.53;;;;;;;24.30;63.89;99876.47;3376662;29;20075;-75
2021/08/09 00:17:11;;;;;;;25.07;13.07;;;;;;;24.30;63.79;99885.44;3376040;29;20443;-75
2021/08/09 00:18:51;;;;;;;23.77;13.30;;;;;;;24.27;63.54;99885.22;3376398;29;20041;-75
2021/08/09 00:20:32;;;;;;;30.23;15.57;;;;;;;24.29;63.52;99883.00;3376509;29;20567;-76
2021/08/09 00:22:13;;;;;;;30.40;13.47;;;;;;;24.28;63.84;99887.63;3376525;29;20084;-76
2021/08/09 00:23:54;;;;;;;32.17;15.50;;;;;;;24.28;63.69;99882.19;3376595;29;20044;-76
2021/08/09 00:25:34;;;;;;;28.83;13.20;;;;;;;24.28;63.64;99881.38;3376646;29;20112;-76
2021/08/09 00:27:15;;;;;;;24.13;13.10;;;;;;;24.28;63.49;99882.19;3375579;29;20044;-75
2021/08/09 00:28:57;;;;;;;31.33;15.80;;;;;;;24.25;63.77;99882.75;3376292;29;20044;-75
2021/08/09 00:30:37;;;;;;;26.48;14.25;;;;;;;24.26;63.70;99878.13;3376739;29;20069;-74
2021/08/09 00:32:18;;;;;;;29.30;13.70;;;;;;;24.26;63.58;99880.84;3376096;29;20066;-75
2021/08/09 00:33:59;;;;;;;28.10;14.15;;;;;;;24.26;63.89;99878.13;3373498;29;20115;-70
2021/08/09 00:35:40;;;;;;;30.13;13.80;;;;;;;24.27;64.20;99880.56;3359886;29;22673;-69
2021/08/09 00:37:21;;;;;;;27.73;13.73;;;;;;;24.27;64.13;99877.03;3370525;29;20091;-70
2021/08/09 00:39:03;;;;;;;35.10;15.43;;;;;;;24.27;64.27;99883.28;3372878;29;20047;-70
2021/08/09 00:40:45;;;;;;;34.15;14.93;;;;;;;24.29;64.01;99883.00;3373137;29;20131;-70
2021/08/09 00:42:26;;;;;;;26.33;13.00;;;;;;;24.29;64.50;99878.38;3373225;29;20139;-71
2021/08/09 00:44:20;;;;;;;30.48;15.15;;;;;;;24.28;64.59;99878.66;3374869;29;20088;-69
2021/08/09 00:46:04;;;;;;;41.97;15.73;;;;;;;24.30;64.58;99882.72;3377197;29;20415;-72
2021/08/09 00:47:48;;;;;;;31.15;14.95;;;;;;;24.30;64.24;99880.00;3376443;29;20120;-71
2021/08/09 00:49:30;;;;;;;39.97;15.82;;;;;;;24.29;64.68;99875.66;3375463;29;20045;-69
2021/08/09 00:51:16;;;;;;;30.20;14.38;;;;;;;24.30;64.54;99874.56;3376040;29;20049;-71
2021/08/09 00:53:03;;;;;;;33.78;14.15;;;;;;;24.30;64.56;99873.75;3376632;29;20055;-70
2021/08/09 00:54:48;;;;;;;36.35;15.35;;;;;;;24.31;64.33;99869.91;3376013;29;20135;-69
2021/08/09 00:56:29;;;;;;;32.83;14.77;;;;;;;24.30;64.20;99871.03;3375292;29;20425;-70
2021/08/09 00:58:11;;;;;;;30.08;15.57;;;;;;;24.29;64.30;99867.50;3375221;29;20045;-68
2021/08/09 00:59:52;;;;;;;35.22;17.15;;;;;;;24.28;64.28;99865.84;3377597;29;20533;-69
2021/08/09 01:01:33;;;;;;;37.10;17.03;;;;;;;24.29;64.14;99866.66;3377571;29;20045;-68
2021/08/09 01:03:17;;;;;;;47.92;17.92;;;;;;;24.27;64.27;99864.22;3362653;29;20059;-69
2021/08/09 01:05:00;;;;;;;46.85;18.52;;;;;;;24.28;64.07;99871.28;3373244;29;20041;-70
2021/08/09 01:06:41;;;;;;;41.05;18.02;;;;;;;24.29;63.98;99864.75;3375423;29;20052;-70
2021/08/09 01:08:37;;;;;;;56.83;20.52;;;;;;;24.29;64.10;99875.66;3375173;29;20435;-71
2021/08/09 01:10:35;;;;;;;50.92;19.38;;;;;;;24.29;64.23;99872.94;3378446;29;20060;-69
2021/08/09 01:12:29;;;;;;;43.65;19.08;;;;;;;24.31;64.06;99876.16;3377696;29;20044;-70
2021/08/09 01:14:29;;;;;;;49.67;19.83;;;;;;;24.31;64.26;99876.16;3364179;29;20140;-69
2021/08/09 01:16:12;;;;;;;51.28;20.20;;;;;;;24.28;64.29;99876.75;3377940;29;20060;-69
2021/08/09 01:17:53;;;;;;;;;;;;;;;24.32;63.99;99882.47;3375890;29;20053;-68
2021/08/09 01:19:40;;;;;;;50.72;20.48;;;;;;;24.30;63.99;99879.19;3375133;29;20370;-73
2021/08/09 01:21:28;;;;;;;52.67;21.63;;;;;;;24.27;64.27;99885.22;3377363;29;20057;-69
2021/08/09 01:23:41;;;;;;;66.65;22.90;;;;;;;24.25;64.01;99874.59;3364604;29;20048;-71
2021/08/09 01:25:29;;;;;;;57.90;23.30;;;;;;;24.17;64.19;99865.09;3377150;29;20048;-71
2021/08/09 01:27:23;;;;;;;73.82;26.63;;;;;;;24.18;64.62;99871.34;3377315;29;20044;-69
2021/08/09 01:29:10;;;;;;;77.97;27.00;;;;;;;24.16;64.76;99868.06;3376214;29;20044;-70
2021/08/09 01:30:55;;;;;;;81.45;29.65;;;;;;;24.12;64.81;99865.13;3362729;29;20052;-71
2021/08/09 01:32:39;;;;;;;65.57;27.15;;;;;;;24.13;64.31;99868.66;3373195;29;20049;-70
2021/08/09 01:34:21;;;;;;;60.70;27.35;;;;;;;24.10;64.17;99864.56;3362202;29;20123;-70
2021/08/09 01:36:03;;;;;;;74.45;28.92;;;;;;;24.11;64.36;99865.38;3372013;29;20064;-69
2021/08/09 01:37:48;;;;;;;67.38;28.17;;;;;;;24.10;64.59;99863.75;3374836;29;20112;-70
2021/08/09 01:39:31;;;;;;;75.57;27.20;;;;;;;24.09;64.29;99862.97;3378073;29;20072;-71
2021/08/09 01:41:12;;;;;;;76.60;29.10;;;;;;;24.10;64.63;99863.75;3364127;29;20567;-71
2021/08/09 01:42:55;;;;;;;61.00;27.35;;;;;;;24.09;64.60;99867.59;3362035;29;20056;-71
2021/08/09 01:44:36;;;;;;;60.50;27.13;;;;;;;24.09;64.45;99870.31;3359605;29;20053;-70
2021/08/09 01:46:18;;;;;;;68.50;26.75;;;;;;;24.07;64.52;99865.13;3359246;29;20089;-69
2021/08/09 01:47:59;;;;;;;59.58;27.33;;;;;;;24.06;64.69;99868.13;3372109;29;20048;-70
2021/08/09 01:49:44;;;;;;;57.17;25.40;;;;;;;24.05;64.52;99871.97;3374961;29;20587;-71
2021/08/09 01:51:26;;;;;;;58.95;25.90;;;;;;;24.03;64.58;99864.06;3364140;29;20576;-71
2021/08/09 01:53:07;;;;;;;62.97;25.75;;;;;;;24.05;64.22;99872.78;3375536;29;20107;-70
2021/08/09 01:54:50;;;;;;;51.25;24.00;;;;;;;24.04;64.65;99879.31;3377013;29;20536;-71
2021/08/09 01:56:32;;;;;;;55.65;24.70;;;;;;;24.04;64.23;99876.59;3360415;29;20492;-69
2021/08/09 01:58:14;;;;;;;45.42;23.15;;;;;;;24.05;64.64;99874.69;3359115;29;20145;-70
2021/08/09 01:59:55;;;;;;;46.13;22.92;;;;;;;24.07;64.59;99889.66;3372379;29;20416;-70
2021/08/09 02:01:36;;;;;;;42.27;20.20;;;;;;;24.05;64.57;99880.13;3373973;29;20040;-70
2021/08/09 02:03:17;;;;;;;40.63;20.60;;;;;;;24.08;64.70;99887.72;3374221;29;20044;-71
2021/08/09 02:05:11;;;;;;;32.57;19.13;;;;;;;24.09;64.59;99889.38;3373850;29;20052;-71
2021/08/09 02:06:52;;;;;;;44.35;18.73;;;;;;;24.07;64.28;99895.09;3375167;29;20164;-71
2021/08/09 02:08:34;;;;;;;36.97;18.17;;;;;;;24.06;64.44;99896.19;3373701;29;20092;-70
2021/08/09 02:10:23;;;;;;;34.83;18.00;;;;;;;24.06;64.59;99895.34;3373912;29;20072;-69
2021/08/09 02:12:06;;;;;;;34.10;17.23;;;;;;;24.03;64.53;99887.75;3362153;29;20066;-70
2021/08/09 02:13:55;;;;;;;38.25;16.85;;;;;;;24.00;64.28;99902.75;3373326;29;20071;-69
2021/08/09 02:15:48;;;;;;;33.25;16.02;;;;;;;23.99;64.39;99903.03;3374392;29;20616;-70
2021/08/09 02:17:38;;;;;;;29.23;14.75;;;;;;;23.96;64.37;99901.69;3375805;29;20048;-70
2021/08/09 02:19:25;;;;;;;32.13;14.73;;;;;;;23.95;64.26;99906.28;3362531;29;20192;-70
2021/08/09 02:21:09;;;;;;;27.73;14.50;;;;;;;23.94;64.36;99906.59;3360301;29;20472;-70
2021/08/09 02:22:54;;;;;;;33.60;15.30;;;;;;;23.93;64.28;99907.66;3372583;29;20053;-71
2021/08/09 02:25:00;;;;;;;29.60;13.38;;;;;;;23.95;64.38;99910.94;3361668;29;20097;-70
2021/08/09 02:26:50;;;;;;;20.67;13.68;;;;;;;23.92;64.30;99917.75;3363634;29;20049;-72
2021/08/09 02:28:33;;;;;;;23.77;13.40;;;;;;;23.89;64.39;99917.50;3362425;29;20100;-71
2021/08/09 02:30:16;;;;;;;24.70;13.50;;;;;;;23.88;64.47;99919.41;3346722;29;20145;-71
2021/08/09 02:31:58;;;;;;;23.35;12.55;;;;;;;23.88;64.14;99915.84;3357471;29;20049;-70
2021/08/09 02:33:41;;;;;;;20.05;12.88;;;;;;;23.86;64.31;99918.88;3372081;29;20048;-71
2021/08/09 02:35:23;;;;;;;27.15;14.25;;;;;;;23.87;64.25;99925.13;3361204;29;20401;-71
2021/08/09 02:37:08;;;;;;;25.33;12.93;;;;;;;23.87;64.74;99919.66;3359299;29;20061;-72
2021/08/09 02:38:48;;;;;;;;;;;;;;;23.88;64.33;99919.41;3372702;29;20044;-69
2021/08/09 02:40:30;;;;;;;20.08;11.80;;;;;;;23.81;64.69;99918.88;3363471;29;19971;-70
2021/08/09 02:42:11;;;;;;;21.77;13.60;;;;;;;23.79;64.65;99923.78;3371785;29;20138;-71
2021/08/09 02:43:52;;;;;;;29.00;13.15;;;;;;;23.80;64.80;99916.41;3373954;29;20068;-71
2021/08/09 02:45:34;;;;;;;21.40;13.15;;;;;;;23.80;64.54;99921.88;3363586;29;20048;-72
2021/08/09 02:47:15;;;;;;;22.00;13.18;;;;;;;23.79;64.46;99917.53;3371332;29;20044;-71
2021/08/09 02:48:56;;;;;;;22.55;13.15;;;;;;;23.81;64.58;99918.88;3361305;29;20048;-71
2021/08/09 02:50:36;;;;;;;25.60;12.77;;;;;;;23.81;64.52;99921.59;3371419;29;20161;-69
2021/08/09 02:52:19;;;;;;;25.27;12.98;;;;;;;23.80;64.71;99913.69;3374022;29;20447;-70
2021/08/09 02:54:02;;;;;;;26.20;12.82;;;;;;;23.80;64.56;99919.97;3361184;29;20051;-70
2021/08/09 02:55:47;;;;;;;26.48;13.77;;;;;;;23.80;64.90;99919.97;3374731;29;20047;-70
2021/08/09 02:57:28;;;;;;;26.65;14.20;;;;;;;23.81;64.65;99916.16;3363465;29;20543;-70
2021/08/09 02:59:09;;;;;;;29.77;13.05;;;;;;;23.83;64.36;99924.06;3371294;29;20044;-71
2021/08/09 03:00:51;;;;;;;24.77;13.27;;;;;;;23.84;64.93;99917.50;3376752;29;20561;-69
2021/08/09 03:02:39;;;;;;;22.98;12.88;;;;;;;23.87;64.45;99925.13;3376998;29;20036;-70
2021/08/09 03:04:22;;;;;;;21.95;13.05;;;;;;;23.89;64.82;99917.50;3363233;29;20074;-71
2021/08/09 03:06:04;;;;;;;22.10;13.15;;;;;;;23.91;64.70;99916.13;3371517;29;20075;-70
2021/08/09 03:07:45;;;;;;;28.40;13.82;;;;;;;23.92;64.38;99920.47;3373930;29;20049;-70
2021/08/09 03:09:27;;;;;;;23.13;13.20;;;;;;;23.97;64.46;99918.84;3373622;29;20048;-70
2021/08/09 03:11:09;;;;;;;26.08;13.05;;;;;;;24.01;64.34;99919.88;3373716;29;20040;-70
2021/08/09 03:13:00;;;;;;;18.80;11.95;;;;;;;24.05;64.25;99923.69;3374188;29;20151;-71
2021/08/09 03:14:42;;;;;;;22.58;13.00;;;;;;;24.05;64.12;99927.22;3361968;29;20505;-70
2021/08/09 03:16:22;;;;;;;22.63;12.97;;;;;;;24.06;64.30;99920.72;3374160;29;20049;-71
2021/08/09 03:18:03;;;;;;;22.30;12.87;;;;;;;24.10;64.18;99919.03;3375791;29;20204;-71
2021/08/09 03:19:45;;;;;;;21.77;12.63;;;;;;;24.13;64.02;99920.38;3373497;29;20525;-71
2021/08/09 03:21:26;;;;;;;23.55;12.40;;;;;;;24.15;64.10;99920.94;3373394;29;20056;-70
2021/08/09 03:23:07;;;;;;;24.33;13.50;;;;;;;24.16;64.07;99922.56;3373402;29;20412;-69
2021/08/09 03:24:48;;;;;;;20.70;12.40;;;;;;;24.17;63.79;99925.00;3373433;29;20056;-70
2021/08/09 03:26:29;;;;;;;20.17;12.47;;;;;;;24.20;63.83;99926.34;3373315;29;20100;-70
2021/08/09 03:28:09;;;;;;;28.80;14.27;;;;;;;24.22;63.91;99926.91;3376610;29;20374;-71
2021/08/09 03:29:50;;;;;;;22.87;13.23;;;;;;;24.26;63.84;99927.97;3376080;29;20138;-71
2021/08/09 03:31:31;;;;;;;23.30;13.83;;;;;;;24.27;64.12;99926.88;3375681;29;20067;-70
2021/08/09 03:33:11;;;;;;;22.90;13.33;;;;;;;24.29;63.97;99929.31;3376673;29;20052;-71
2021/08/09 03:34:54;;;;;;;28.23;11.73;;;;;;;24.32;63.56;99937.75;3375705;29;20056;-69
2021/08/09 03:36:35;;;;;;;25.90;12.93;;;;;;;24.33;63.81;99933.91;3376337;29;20140;-69
2021/08/09 03:38:17;;;;;;;18.38;12.15;;;;;;;24.36;63.78;99930.63;3376846;29;20289;-71
2021/08/09 03:40:01;;;;;;;20.45;12.05;;;;;;;24.37;63.74;99926.03;3375454;29;20571;-70
2021/08/09 03:41:42;;;;;;;22.47;13.27;;;;;;;24.42;63.59;99936.06;3376696;29;20055;-71
2021/08/09 03:43:22;;;;;;;23.95;12.63;;;;;;;24.45;63.59;99930.09;3375846;29;20108;-70
2021/08/09 03:45:05;;;;;;;19.30;12.90;;;;;;;24.46;63.50;99927.06;3373108;29;20059;-70
2021/08/09 03:46:46;;;;;;;18.27;11.70;;;;;;;24.51;63.17;99940.69;3376576;29;20127;-71
2021/08/09 03:48:27;;;;;;;19.93;12.03;;;;;;;24.55;63.35;99935.47;3363106;29;20045;-69
2021/08/09 03:50:08;;;;;;;20.17;11.80;;;;;;;24.57;63.00;99938.72;3373770;29;20393;-71
2021/08/09 03:51:49;;;;;;;23.98;12.63;;;;;;;24.59;63.20;99937.34;3376621;29;20048;-71
2021/08/09 03:53:29;;;;;;;24.43;12.80;;;;;;;24.63;63.25;99937.63;3375597;29;20059;-69
2021/08/09 03:55:10;;;;;;;22.80;13.00;;;;;;;24.64;63.32;99939.25;3373161;29;20076;-70
2021/08/09 03:56:51;;;;;;;27.97;13.13;;;;;;;24.69;63.13;99936.50;3376414;29;20131;-70
2021/08/09 03:58:32;;;;;;;27.73;14.17;;;;;;;24.73;63.78;99939.44;3375385;29;20127;-71
2021/08/09 04:00:17;;;;;;;18.93;12.37;;;;;;;24.77;63.94;99943.25;3368800;29;20036;-70
2021/08/09 04:02:02;;;;;;;20.17;11.57;;;;;;;24.79;63.64;99941.06;3365545;29;20099;-70
2021/08/09 04:03:42;;;;;;;26.23;14.85;;;;;;;24.83;63.45;99941.31;3375246;29;20055;-72
2021/08/09 04:05:24;;;;;;;21.70;13.32;;;;;;;24.84;64.15;99942.94;3373005;29;20052;-71
2021/08/09 04:07:05;;;;;;;22.00;12.87;;;;;;;24.87;64.06;99945.91;3375812;29;20106;-71
2021/08/09 04:08:48;;;;;;;20.97;12.70;;;;;;;24.92;64.69;99934.97;3374347;29;20494;-70
2021/08/09 04:10:29;;;;;;;38.05;13.18;;;;;;;24.98;64.66;99941.19;3376421;29;20107;-69
2021/08/09 04:12:10;;;;;;;22.70;12.63;;;;;;;25.02;64.77;99943.06;3375493;29;20617;-71
2021/08/09 04:13:50;;;;;;;21.87;13.67;;;;;;;25.07;64.36;99933.22;3372711;29;20499;-71
2021/08/09 04:15:31;;;;;;;20.50;12.40;;;;;;;25.03;64.42;99927.53;3372559;29;20312;-71
2021/08/09 04:17:15;;;;;;;22.15;13.98;;;;;;;25.11;64.11;99943.28;3372942;29;20172;-69
2021/08/09 04:18:56;;;;;;;25.87;14.43;;;;;;;25.13;64.16;99941.09;3373174;29;20524;-71
2021/08/09 04:20:37;;;;;;;20.97;12.80;;;;;;;25.18;64.18;99937.53;3378415;29;20072;-69
2021/08/09 04:22:18;;;;;;;38.25;13.38;;;;;;;25.21;64.67;99937.75;3378095;29;20044;-71
2021/08/09 04:23:59;;;;;;;24.35;12.77;;;;;;;25.26;64.65;99933.38;3377975;29;20048;-69
2021/08/09 04:25:40;;;;;;;24.98;14.20;;;;;;;25.29;64.12;99928.16;3378172;29;20464;-69
2021/08/09 04:27:21;;;;;;;25.23;14.10;;;;;;;25.31;64.09;99927.88;3375678;29;20100;-71
2021/08/09 04:29:02;;;;;;;21.80;12.20;;;;;;;25.36;64.27;99933.28;3377852;29;20462;-73
2021/08/09 04:30:43;;;;;;;30.27;14.17;;;;;;;25.39;64.02;99928.06;3374263;29;20040;-71
2021/08/09 04:32:23;;;;;;;34.83;15.50;;;;;;;25.40;64.08;99935.16;3369779;29;20297;-72
2021/08/09 04:34:05;;;;;;;25.77;15.33;;;;;;;25.43;64.22;99933.78;3389846;29;20495;-70
2021/08/09 04:35:45;;;;;;;33.83;14.80;;;;;;;25.46;64.96;99938.66;3385881;29;20048;-71
2021/08/09 04:37:26;;;;;;;29.20;14.03;;;;;;;25.50;64.84;99934.22;3374073;29;20089;-70
2021/08/09 04:39:08;;;;;;;;;;;;;;;25.57;64.67;99931.97;3386738;29;20040;-70
2021/08/09 04:40:49;;;;;;;29.23;13.73;;;;;;;25.58;64.72;99925.44;3386453;29;19922;-72
2021/08/09 04:42:30;;;;;;;24.97;14.30;;;;;;;25.60;64.26;99933.31;3388515;29;20140;-75
2021/08/09 04:44:13;;;;;;;26.67;14.95;;;;;;;25.62;63.85;99931.13;3386132;29;20044;-73
2021/08/09 04:45:54;;;;;;;22.55;13.95;;;;;;;25.64;63.72;99924.28;3386372;29;20036;-73
2021/08/09 04:47:37;;;;;;;27.77;14.93;;;;;;;25.68;62.97;99930.75;3385794;29;20095;-73
2021/08/09 04:49:19;;;;;;;30.02;15.07;;;;;;;25.66;62.09;99926.69;3370262;29;20415;-71
2021/08/09 04:51:00;;;;;;;35.57;15.87;;;;;;;25.61;61.73;99918.59;3374325;29;20044;-72
2021/08/09 04:52:43;;;;;;;29.27;16.20;;;;;;;25.59;61.26;99931.72;3364175;29;20501;-73
2021/08/09 04:54:29;;;;;;;32.45;16.58;;;;;;;25.53;60.60;99932.84;3375746;29;20091;-72
2021/08/09 04:56:10;;;;;;;28.45;15.00;;;;;;;25.48;60.31;99925.53;3377113;29;20049;-72
2021/08/09 04:57:52;;;;;;;31.52;14.93;;;;;;;25.45;59.13;99915.19;3371460;29;20082;-71
2021/08/09 04:59:33;;;;;;;18.13;11.73;;;;;;;25.45;58.99;99929.66;3376531;29;20036;-71
2021/08/09 05:01:15;;;;;;;30.10;13.77;;;;;;;25.46;59.02;99927.75;3373993;29;20131;-72
2021/08/09 05:02:55;;;;;;;29.92;13.43;;;;;;;25.46;59.58;99928.53;3386870;29;20036;-71
2021/08/09 05:04:37;;;;;;;24.20;14.00;;;;;;;25.49;60.10;99926.34;3376951;29;20393;-71
2021/08/09 05:06:20;;;;;;;28.58;15.80;;;;;;;25.49;60.28;99921.69;3376398;29;20108;-74
2021/08/09 05:08:02;;;;;;;32.92;14.68;;;;;;;25.52;59.96;99926.56;3375977;29;20099;-75
2021/08/09 05:09:44;;;;;;;43.97;17.90;;;;;;;25.57;60.31;99926.53;3374069;29;20516;-74
2021/08/09 05:11:26;;;;;;;37.45;16.10;;;;;;;25.59;60.47;99924.31;3372136;29;20037;-74
2021/08/09 05:13:21;;;;;;;54.35;17.67;;;;;;;25.59;60.09;99921.59;3387102;29;20939;-74
2021/08/09 05:15:08;;;;;;;43.45;17.17;;;;;;;25.66;60.28;99926.69;3374538;29;20036;-73
2021/08/09 05:16:49;;;;;;;43.35;17.27;;;;;;;25.66;60.29;99924.81;3373757;29;20468;-74
2021/08/09 05:18:31;;;;;;;39.40;16.37;;;;;;;25.71;60.34;99926.66;3376817;29;20044;-72
2021/08/09 05:20:13;;;;;;;32.30;14.85;;;;;;;25.72;60.43;99924.75;3377365;29;20056;-74
2021/08/09 05:21:55;;;;;;;;;;;;;;;25.83;60.21;99937.19;3378618;29;20040;-71
2021/08/09 05:23:36;;;;;;;23.75;15.00;;;;;;;25.78;60.06;99918.94;3379354;29;19922;-72
2021/08/09 05:25:17;;;;;;;24.00;14.77;;;;;;;25.87;60.30;99925.44;3372517;29;20036;-72
2021/08/09 05:26:59;;;;;;;21.58;14.25;;;;;;;25.94;60.44;99924.25;3376424;29;20083;-71
2021/08/09 05:28:41;;;;;;;26.17;14.53;;;;;;;25.96;60.02;99924.78;3375842;29;20048;-71
2021/08/09 05:30:21;;;;;;;18.23;12.70;;;;;;;26.02;59.81;99924.44;3374239;29;20052;-69
2021/08/09 05:32:04;;;;;;;19.83;13.20;;;;;;;26.06;60.04;99930.94;3369296;29;20405;-71
2021/08/09 05:33:46;;;;;;;21.08;12.68;;;;;;;26.10;59.90;99920.25;3367841;29;20041;-71
2021/08/09 05:35:27;;;;;;;16.00;11.00;;;;;;;26.20;60.41;99924.75;3376740;29;20045;-71
2021/08/09 05:37:09;;;;;;;26.77;12.15;;;;;;;26.28;61.54;99918.63;3373104;29;20064;-70
2021/08/09 05:38:53;;;;;;;29.05;13.27;;;;;;;26.33;61.29;99916.66;3373546;29;20512;-71
2021/08/09 05:40:37;;;;;;;20.40;11.13;;;;;;;26.41;60.68;99928.88;3374060;29;20140;-70
2021/08/09 05:42:18;;;;;;;29.70;12.10;;;;;;;26.47;60.73;99930.41;3373137;29;20172;-71
2021/08/09 05:43:59;;;;;;;32.08;12.10;;;;;;;26.54;60.57;99928.16;3370608;29;20123;-74
2021/08/09 05:45:40;;;;;;;30.45;12.23;;;;;;;26.60;59.76;99930.81;3361075;29;20091;-75
2021/08/09 05:47:23;;;;;;;22.47;12.30;;;;;;;26.64;59.67;99929.09;3369047;29;20044;-72
2021/08/09 05:49:04;;;;;;;28.23;12.95;;;;;;;26.70;59.36;99927.94;3372279;29;20432;-76
2021/08/09 05:50:45;;;;;;;38.58;12.45;;;;;;;26.75;59.72;99931.41;3373540;29;20148;-76
2021/08/09 05:52:27;;;;;;;23.20;12.75;;;;;;;26.79;59.91;99930.81;3373797;29;20052;-75
2021/08/09 05:54:20;;;;;;;29.05;12.77;;;;;;;26.87;59.39;99928.19;3358257;29;20137;-73
2021/08/09 05:56:03;;;;;;;22.90;12.82;;;;;;;26.91;59.33;99923.78;3367846;29;20057;-76
2021/08/09 05:57:57;;;;;;;27.55;14.30;;;;;;;26.95;58.81;99924.81;3374254;29;20496;-75
2021/08/09 05:59:39;;;;;;;;;;;;;;;27.05;58.85;99926.56;3376921;29;20088;-75
2021/08/09 06:01:20;;;;;;;23.48;14.68;;;;;;;27.05;59.12;99923.00;3375817;29;20436;-74
2021/08/09 06:03:01;;;;;;;39.97;18.90;;;;;;;27.10;60.44;99925.66;3373448;29;20052;-76
2021/08/09 06:05:18;;;;;;;32.95;18.52;;;;;;;27.17;59.78;99931.56;3362140;29;20575;-74
2021/08/09 06:07:04;;;;;;;36.40;18.42;;;;;;;27.22;59.34;99926.03;3366433;29;20052;-76
2021/08/09 06:08:48;;;;;;;37.13;18.17;;;;;;;27.26;59.06;99929.81;3368749;29;20050;-73
2021/08/09 06:10:28;;;;;;;33.05;17.67;;;;;;;27.32;58.98;99920.41;3367306;29;20716;-75
2021/08/09 06:12:14;;;;;;;32.90;19.20;;;;;;;27.38;59.00;99921.91;3368078;29;20226;-75
2021/08/09 06:13:57;;;;;;;31.88;17.95;;;;;;;27.47;58.68;99927.53;3369146;29;20045;-75
2021/08/09 06:15:38;;;;;;;33.97;19.02;;;;;;;27.57;58.78;99927.34;3354479;29;20053;-74
2021/08/09 06:17:21;;;;;;;39.40;21.33;;;;;;;27.65;58.30;99928.59;3361917;29;20045;-74
2021/08/09 06:19:03;;;;;;;33.50;19.10;;;;;;;27.75;58.71;99927.56;3367515;29;20061;-76
2021/08/09 06:20:47;;;;;;;35.97;19.15;;;;;;;27.88;58.97;99929.53;3368961;29;20044;-73
2021/08/09 06:22:28;;;;;;;42.80;19.05;;;;;;;27.98;58.22;99928.50;3365394;29;21855;-76
2021/08/09 06:24:09;;;;;;;28.98;18.80;;;;;;;28.03;57.57;99931.94;3375432;29;20139;-75
2021/08/09 06:25:54;;;;;;;35.60;19.90;;;;;;;28.07;57.26;99923.13;3369273;29;20048;-73
2021/08/09 06:27:37;;;;;;;29.05;18.48;;;;;;;28.05;56.79;99917.94;3371622;29;20480;-73
2021/08/09 06:29:19;;;;;;;;;;;;;;;28.20;56.72;99925.06;3373607;29;20040;-73
2021/08/09 06:30:59;;;;;;;33.15;18.45;;;;;;;28.26;56.26;99921.06;3372316;29;20391;-76
2021/08/09 06:32:41;;;;;;;24.40;16.40;;;;;;;28.44;55.76;99922.91;3367199;29;20129;-74
2021/08/09 06:34:22;;;;;;;25.83;16.17;;;;;;;28.61;55.27;99918.72;3365841;29;20037;-72
2021/08/09 06:36:04;;;;;;;21.50;14.60;;;;;;;28.79;55.20;99919.66;3370995;29;20056;-73
2021/08/09 06:37:47;;;;;;;34.50;16.42;;;;;;;28.99;55.56;99915.59;3382315;29;20044;-74
2021/08/09 06:39:29;;;;;;;27.58;17.17;;;;;;;29.15;54.76;99905.91;3374790;29;20055;-73
2021/08/09 06:41:10;;;;;;;32.08;14.52;;;;;;;29.28;55.75;99909.69;3374629;29;20064;-74
2021/08/09 06:42:57;;;;;;;32.63;17.77;;;;;;;29.39;55.17;99915.72;3373670;29;20040;-73
2021/08/09 06:44:41;;;;;;;32.67;17.85;;;;;;;29.47;54.75;99913.03;3369165;29;20433;-73
2021/08/09 06:46:22;;;;;;;28.83;16.02;;;;;;;29.55;54.04;99912.25;3369164;29;20045;-76
2021/08/09 06:48:04;;;;;;;33.35;18.50;;;;;;;29.69;53.22;99908.66;3374064;29;21641;-75
2021/08/09 06:49:48;;;;;;;22.95;15.23;;;;;;;29.83;52.84;99908.53;3373707;29;20052;-73
2021/08/09 06:51:28;;;;;;;;;;;;;;;30.00;53.28;99909.41;3381803;29;20055;-72
2021/08/09 06:53:10;;;;;;;34.53;14.55;;;;;;;30.06;54.15;99910.06;3385328;29;20305;-73
2021/08/09 06:54:59;;;;;;;27.30;15.63;;;;;;;30.10;53.52;99893.72;3385798;29;20202;-73
2021/08/09 06:56:40;;;;;;;28.48;12.77;;;;;;;30.17;53.44;99894.06;3386283;29;20051;-73
2021/08/09 06:58:20;;;;;;;32.77;14.17;;;;;;;30.25;52.69;99898.78;3386442;29;20131;-73
2021/08/09 07:00:04;;;;;;;30.67;15.80;;;;;;;30.34;51.88;99907.88;3388972;29;20519;-73
2021/08/09 07:01:45;;;;;;;29.98;14.52;;;;;;;30.43;51.16;99899.63;3386536;29;20044;-73
2021/08/09 07:03:26;;;;;;;;;;;;;;;30.55;51.82;99897.06;3387313;29;20525;-74
2021/08/09 07:05:08;;;;;;;30.40;13.45;;;;;;;30.57;51.26;99903.03;3386519;29;19947;-74
2021/08/09 07:06:50;;;;;;;29.33;13.73;;;;;;;30.63;50.75;99898.19;3388758;29;20264;-72
2021/08/09 07:08:35;;;;;;;28.73;14.38;;;;;;;30.74;50.07;99899.47;3386869;29;20036;-74
2021/08/09 07:10:16;;;;;;;29.90;15.63;;;;;;;30.81;49.49;99894.31;3386453;29;20082;-73
2021/08/09 07:11:57;;;;;;;;;;;;;;;30.95;49.96;99896.88;3386806;29;20048;-72
2021/08/09 07:13:39;;;;;;;25.50;15.82;;;;;;;30.99;48.92;99900.63;3388971;29;19923;-73
2021/08/09 07:15:20;;;;;;;22.15;13.52;;;;;;;31.05;48.55;99893.78;3373304;29;20256;-74
2021/08/09 07:17:01;;;;;;;22.67;14.40;;;;;;;31.12;48.46;99898.00;3383574;29;20055;-73
2021/08/09 07:18:42;;;;;;;18.23;11.65;;;;;;;31.18;48.25;99894.72;3386227;29;20122;-73
2021/08/09 07:20:24;;;;;;;24.33;13.07;;;;;;;31.25;48.22;99891.50;3386238;29;20139;-72
2021/08/09 07:22:05;;;;;;;18.83;13.05;;;;;;;31.34;48.11;99899.72;3389681;29;20504;-74
2021/08/09 07:23:49;;;;;;;20.30;14.45;;;;;;;31.40;47.62;99898.44;3388779;29;20048;-73
2021/08/09 07:25:30;;;;;;;22.27;16.10;;;;;;;31.49;47.31;99901.97;3389382;29;20590;-71
2021/08/09 07:27:12;;;;;;;23.17;13.25;;;;;;;31.62;47.38;99903.69;3388808;29;20056;-72
2021/08/09 07:28:53;;;;;;;19.65;12.50;;;;;;;31.77;46.99;99902.34;3386356;29;20124;-75
2021/08/09 07:30:34;;;;;;;21.10;13.00;;;;;;;31.92;46.77;99903.75;3386144;29;20063;-73
2021/08/09 07:32:18;;;;;;;18.88;12.05;;;;;;;32.09;46.35;99895.41;3386675;29;20511;-73
2021/08/09 07:33:58;;;;;;;14.67;12.20;;;;;;;32.14;46.02;99897.97;3389415;29;20159;-73
2021/08/09 07:35:39;;;;;;;22.33;12.83;;;;;;;32.02;46.22;99903.38;3389498;29;20427;-73
2021/08/09 07:37:20;;;;;;;30.17;13.25;;;;;;;32.00;46.35;99902.91;3388641;29;20043;-72
2021/08/09 07:39:00;;;;;;;26.02;13.95;;;;;;;32.05;46.03;99910.19;3389500;29;20048;-74
2021/08/09 07:40:41;;;;;;;19.17;12.63;;;;;;;32.16;45.68;99903.13;3388958;29;20047;-72
2021/08/09 07:42:23;;;;;;;20.92;14.35;;;;;;;32.30;45.05;99905.66;3385937;29;20051;-72
2021/08/09 07:44:05;;;;;;;23.40;14.73;;;;;;;32.34;45.09;99893.59;3385922;29;20126;-74
2021/08/09 07:45:46;;;;;;;18.95;13.43;;;;;;;32.43;45.01;99903.78;3385993;29;20391;-73
2021/08/09 07:47:27;;;;;;;35.75;15.38;;;;;;;32.46;44.31;99900.34;3385820;29;20081;-72
2021/08/09 07:49:08;;;;;;;25.13;14.80;;;;;;;32.50;44.55;99902.13;3385947;29;20044;-74
2021/08/09 07:50:49;;;;;;;27.13;16.75;;;;;;;32.54;44.08;99900.28;3388547;29;20043;-74
2021/08/09 07:52:30;;;;;;;18.50;11.40;;;;;;;32.65;44.32;99903.44;3385768;29;20044;-73
2021/08/09 07:54:11;;;;;;;20.35;14.43;;;;;;;32.78;44.66;99901.56;3385270;29;20077;-72